createdAt,value
2018-09-23T00:01:17.871Z,27.83
2018-09-23T00:03:46.588Z,31.57
2018-09-23T00:06:15.353Z,27.13
2018-09-23T00:08:44.156Z,25.60
2018-09-23T00:11:12.933Z,26.43
2018-09-23T00:13:41.712Z,29.03
2018-09-23T00:16:11.188Z,24.10
2018-09-23T00:18:40.083Z,30.80
2018-09-23T00:21:08.844Z,24.53
2018-09-23T00:23:37.624Z,23.30
2018-09-23T00:26:06.449Z,23.57
2018-09-23T00:28:35.839Z,22.30
2018-09-23T00:31:04.681Z,23.33
2018-09-23T00:33:33.447Z,23.30
2018-09-23T00:36:02.131Z,23.17
2018-09-23T00:38:30.883Z,23.80
2018-09-23T00:40:59.573Z,23.63
2018-09-23T00:43:28.341Z,24.57
2018-09-23T00:45:57.076Z,23.33
2018-09-23T00:48:25.798Z,22.97
2018-09-23T00:50:54.487Z,26.77
2018-09-23T00:53:23.141Z,32.40
2018-09-23T00:55:51.894Z,34.13
2018-09-23T00:58:20.632Z,39.90
2018-09-23T01:00:49.771Z,32.93
2018-09-23T01:03:18.507Z,30.17
2018-09-23T01:05:47.190Z,36.40
2018-09-23T01:08:16.025Z,33.67
2018-09-23T01:10:44.888Z,37.57
2018-09-23T01:13:13.638Z,38.37
2018-09-23T01:15:42.377Z,36.77
2018-09-23T01:18:11.110Z,34.90
2018-09-23T01:20:40.168Z,30.77
2018-09-23T01:23:08.885Z,36.67
2018-09-23T01:25:37.708Z,34.17
2018-09-23T01:28:06.675Z,39.20
2018-09-23T01:30:35.408Z,39.90
2018-09-23T01:33:04.253Z,31.30
2018-09-23T01:35:33.008Z,34.90
2018-09-23T01:38:01.713Z,36.93
2018-09-23T01:40:31.061Z,33.83
2018-09-23T01:42:59.755Z,36.83
2018-09-23T01:45:28.528Z,34.80
2018-09-23T01:47:57.678Z,29.90
2018-09-23T01:50:26.400Z,35.93
2018-09-23T01:52:55.128Z,36.53
2018-09-23T01:55:23.956Z,37.13
2018-09-23T01:57:52.760Z,38.07
2018-09-23T02:00:21.445Z,40.40
2018-09-23T02:02:50.108Z,33.63
2018-09-23T02:05:18.881Z,38.40
2018-09-23T02:07:47.568Z,32.63
2018-09-23T02:10:16.292Z,32.70
2018-09-23T02:12:44.956Z,34.20
2018-09-23T02:15:13.665Z,33.40
2018-09-23T02:17:42.415Z,30.93
2018-09-23T02:20:11.138Z,31.67
2018-09-23T02:22:39.851Z,35.30
2018-09-23T02:25:08.606Z,32.53
2018-09-23T02:27:37.328Z,36.17
2018-09-23T02:30:06.136Z,33.97
2018-09-23T02:32:34.848Z,36.67
2018-09-23T02:35:03.595Z,37.47
2018-09-23T02:37:32.355Z,39.67
2018-09-23T02:40:01.063Z,36.37
2018-09-23T02:42:29.978Z,51.60
2018-09-23T02:44:58.676Z,50.30
2018-09-23T02:47:27.390Z,51.77
2018-09-23T02:49:56.235Z,49.40
2018-09-23T02:52:25.050Z,46.70
2018-09-23T02:54:53.745Z,39.83
2018-09-23T02:57:22.472Z,40.03
2018-09-23T02:59:51.186Z,42.70
2018-09-23T03:02:19.900Z,37.87
2018-09-23T03:04:48.596Z,41.50
2018-09-23T03:07:17.310Z,41.10
2018-09-23T03:09:46.267Z,39.77
2018-09-23T03:12:15.000Z,43.23
2018-09-23T03:14:44.758Z,41.53
2018-09-23T03:17:17.662Z,40.87
2018-09-23T03:20:14.843Z,40.40
2018-09-23T03:30:11.366Z,40.67
2018-09-23T03:36:20.293Z,37.23
2018-09-23T03:38:49.673Z,38.53
2018-09-23T03:41:19.238Z,75.80
2018-09-23T03:43:48.520Z,43.03
2018-09-23T03:46:17.808Z,72.70
2018-09-23T03:48:47.123Z,58.63
2018-09-23T03:51:16.535Z,56.00
2018-09-23T03:53:46.018Z,50.93
2018-09-23T03:56:15.318Z,55.40
2018-09-23T03:58:44.623Z,58.80
2018-09-23T04:01:13.913Z,118.80
2018-09-23T04:03:43.231Z,349.37
2018-09-23T04:06:12.513Z,169.90
2018-09-23T04:08:41.781Z,415.50
2018-09-23T04:11:11.051Z,154.60
2018-09-23T04:13:40.287Z,323.00
2018-09-23T04:16:09.639Z,476.23
2018-09-23T04:18:38.899Z,176.47
2018-09-23T04:21:08.224Z,211.67
2018-09-23T04:23:37.523Z,331.03
2018-09-23T04:26:06.953Z,141.00
2018-09-23T04:28:36.199Z,503.23
2018-09-23T04:31:05.453Z,245.10
2018-09-23T04:33:34.694Z,378.43
2018-09-23T04:36:03.948Z,459.40
2018-09-23T04:38:33.193Z,361.40
2018-09-23T04:41:02.504Z,520.50
2018-09-23T04:43:31.716Z,466.77
2018-09-23T04:46:01.039Z,692.43
2018-09-23T04:48:30.358Z,174.27
2018-09-23T04:50:59.754Z,510.60
2018-09-23T04:53:29.263Z,461.73
2018-09-23T04:55:58.550Z,398.70
2018-09-23T04:58:27.788Z,408.50
2018-09-23T05:00:57.094Z,76.83
2018-09-23T05:03:26.400Z,79.57
2018-09-23T05:05:55.716Z,245.60
2018-09-23T05:08:25.033Z,280.23
2018-09-23T05:10:54.285Z,591.00
2018-09-23T05:13:23.668Z,604.70
2018-09-23T05:15:52.968Z,332.13
2018-09-23T05:18:22.296Z,452.93
2018-09-23T05:20:51.611Z,878.87
2018-09-23T05:23:20.968Z,340.37
2018-09-23T05:25:50.308Z,780.03
2018-09-23T05:28:19.594Z,695.53
2018-09-23T05:30:48.901Z,519.07
2018-09-23T05:33:18.226Z,599.07
2018-09-23T05:35:47.514Z,352.57
2018-09-23T05:38:16.771Z,453.33
2018-09-23T05:40:46.063Z,429.00
2018-09-23T05:43:15.493Z,422.60
2018-09-23T05:45:44.798Z,654.00
2018-09-23T05:48:14.075Z,978.43
2018-09-23T05:50:43.423Z,504.73
2018-09-23T05:53:13.492Z,302.97
2018-09-23T05:55:42.736Z,846.30
2018-09-23T05:58:12.090Z,572.23
2018-09-23T06:00:45.773Z,830.77
2018-09-23T06:03:15.376Z,824.37
2018-09-23T06:05:44.729Z,331.47
2018-09-23T06:08:14.107Z,392.87
2018-09-23T06:10:43.529Z,344.03
2018-09-23T06:13:12.743Z,398.87
2018-09-23T06:15:42.180Z,341.17
2018-09-23T06:18:11.411Z,445.50
2018-09-23T06:20:40.711Z,273.17
2018-09-23T06:23:10.016Z,486.80
2018-09-23T06:25:39.353Z,687.23
2018-09-23T06:28:08.634Z,227.10
2018-09-23T06:30:37.916Z,261.53
2018-09-23T06:33:07.374Z,285.70
2018-09-23T06:35:37.646Z,618.30
2018-09-23T06:38:06.939Z,344.63
2018-09-23T06:40:36.321Z,343.70
2018-09-23T06:43:05.657Z,205.57
2018-09-23T06:45:34.904Z,254.77
2018-09-23T06:48:04.183Z,39.13
2018-09-23T06:50:34.098Z,85.30
2018-09-23T06:53:03.572Z,77.47
2018-09-23T06:55:33.014Z,479.30
2018-09-23T06:58:02.319Z,102.60
2018-09-23T07:00:31.872Z,253.57
2018-09-23T07:03:02.311Z,100.90
2018-09-23T07:05:31.675Z,47.10
2018-09-23T07:08:04.204Z,40.73
2018-09-23T07:10:34.619Z,41.60
2018-09-23T07:13:04.514Z,41.70
2018-09-23T07:15:34.096Z,37.33
2018-09-23T07:18:03.484Z,33.23
2018-09-23T07:20:32.864Z,35.90
2018-09-23T07:23:02.194Z,31.07
2018-09-23T07:25:31.873Z,31.47
2018-09-23T07:28:01.193Z,31.23
2018-09-23T07:30:30.743Z,26.90
2018-09-23T07:32:59.986Z,26.60
2018-09-23T07:35:29.402Z,25.63
2018-09-23T07:37:59.417Z,26.57
2018-09-23T07:40:29.766Z,23.83
2018-09-23T07:42:59.034Z,27.53
2018-09-23T07:45:28.445Z,25.53
2018-09-23T07:47:58.153Z,25.30
2018-09-23T07:50:26.876Z,27.97
2018-09-23T07:52:55.599Z,26.83
2018-09-23T07:55:24.286Z,26.50
2018-09-23T07:57:53.029Z,24.45
2018-09-23T08:00:21.756Z,25.67
2018-09-23T08:02:50.466Z,26.97
2018-09-23T08:05:19.157Z,26.87
2018-09-23T08:07:47.881Z,24.90
2018-09-23T08:10:16.698Z,22.70
2018-09-23T08:12:45.750Z,23.75
2018-09-23T08:15:14.209Z,20.50
2018-09-23T08:17:43.775Z,24.98
2018-09-23T08:20:12.493Z,18.27
2018-09-23T08:22:41.157Z,20.55
2018-09-23T08:25:09.994Z,19.27
2018-09-23T08:27:38.559Z,18.65
2018-09-23T08:30:07.436Z,18.90
2018-09-23T08:32:36.061Z,19.48
2018-09-23T08:35:04.839Z,17.27
2018-09-23T08:37:33.579Z,15.40
2018-09-23T08:40:02.275Z,17.55
2018-09-23T08:42:30.962Z,16.12
2018-09-23T08:44:59.636Z,13.53
2018-09-23T08:47:28.276Z,14.43
2018-09-23T08:49:57.001Z,14.30
2018-09-23T08:52:25.684Z,13.85
2018-09-23T08:54:54.368Z,20.12
2018-09-23T08:57:23.087Z,13.20
2018-09-23T08:59:52.049Z,14.23
2018-09-23T09:02:20.711Z,17.20
2018-09-23T09:04:49.382Z,15.18
2018-09-23T09:07:18.104Z,15.38
2018-09-23T09:09:46.892Z,14.05
2018-09-23T09:12:15.577Z,13.80
2018-09-23T09:14:44.220Z,18.02
2018-09-23T09:17:12.957Z,11.75
2018-09-23T09:19:41.997Z,13.43
2018-09-23T09:22:10.695Z,12.40
2018-09-23T09:24:39.429Z,17.42
2018-09-23T09:27:08.103Z,13.50
2018-09-23T09:29:36.800Z,15.15
2018-09-23T09:32:05.481Z,12.10
2018-09-23T09:34:34.741Z,11.48
2018-09-23T09:37:03.625Z,13.43
2018-09-23T09:39:32.457Z,13.43
2018-09-23T09:42:01.330Z,14.83
2018-09-23T09:44:30.187Z,11.63
2018-09-23T09:46:58.849Z,12.37
2018-09-23T09:49:27.597Z,11.57
2018-09-23T09:51:56.364Z,10.63
2018-09-23T09:54:25.037Z,17.27
2018-09-23T09:56:53.697Z,9.20
2018-09-23T09:59:22.787Z,9.60
2018-09-23T10:01:52.030Z,13.15
2018-09-23T10:04:20.815Z,9.80
2018-09-23T10:06:49.561Z,8.95
2018-09-23T10:09:18.394Z,15.43
2018-09-23T10:11:47.209Z,11.73
2018-09-23T10:14:16.032Z,8.18
2018-09-23T10:16:44.776Z,8.45
2018-09-23T10:19:13.584Z,11.10
2018-09-23T10:21:42.348Z,9.35
2018-09-23T10:24:11.097Z,9.33
2018-09-23T10:26:39.834Z,12.58
2018-09-23T10:29:08.637Z,8.93
2018-09-23T10:31:42.219Z,10.50
2018-09-23T10:34:13.027Z,9.08
2018-09-23T10:36:41.764Z,9.13
2018-09-23T10:39:11.226Z,8.28
2018-09-23T10:41:39.882Z,7.67
2018-09-23T10:44:09.125Z,7.28
2018-09-23T10:46:38.079Z,13.18
2018-09-23T10:49:07.219Z,9.10
2018-09-23T10:51:35.957Z,8.28
2018-09-23T10:54:05.587Z,7.78
2018-09-23T10:56:34.371Z,6.30
2018-09-23T10:59:03.272Z,6.70
2018-09-23T11:01:31.969Z,7.87
2018-09-23T11:04:00.838Z,9.08
2018-09-23T11:06:29.569Z,8.98
2018-09-23T11:08:58.381Z,7.58
2018-09-23T11:11:27.210Z,6.58
2018-09-23T11:13:56.488Z,7.05
2018-09-23T11:16:25.368Z,6.40
2018-09-23T11:18:54.345Z,7.45
2018-09-23T11:21:23.252Z,5.78
2018-09-23T11:23:52.745Z,11.40
2018-09-23T11:26:23.020Z,9.95
2018-09-23T11:28:52.382Z,10.25
2018-09-23T11:31:21.395Z,10.65
2018-09-23T11:33:50.296Z,7.83
2018-09-23T11:36:19.535Z,6.90
2018-09-23T11:45:19.612Z,10.08
2018-09-23T11:51:16.979Z,7.35
2018-09-23T12:09:32.449Z,10.28
2018-09-23T12:18:56.141Z,8.65
2018-09-23T12:25:41.238Z,13.08
2018-09-23T12:31:40.395Z,8.75
2018-09-23T12:38:00.357Z,9.85
2018-09-23T12:44:09.509Z,6.95
2018-09-23T12:47:11.364Z,10.13
2018-09-23T12:50:12.508Z,8.48
2018-09-23T12:53:16.954Z,8.40
2018-09-23T12:56:19.757Z,5.80
2018-09-23T13:02:29.143Z,7.40
2018-09-23T13:05:33.268Z,8.03
2018-09-23T13:18:02.349Z,5.60
2018-09-23T13:21:06.202Z,6.22
2018-09-23T13:27:22.772Z,8.33
2018-09-23T13:36:14.529Z,4.60
2018-09-23T13:39:16.251Z,9.48
2018-09-23T13:42:11.667Z,5.22
2018-09-23T13:48:03.920Z,5.83
2018-09-23T13:51:09.794Z,10.13
2018-09-23T13:54:03.915Z,7.08
2018-09-23T13:57:04.942Z,7.37
2018-09-23T14:03:29.324Z,5.97
2018-09-23T14:06:37.531Z,7.15
2018-09-23T14:09:31.553Z,13.48
2018-09-23T14:12:45.583Z,8.33
2018-09-23T14:15:42.331Z,7.87
2018-09-23T14:22:04.039Z,8.30
2018-09-23T14:28:10.413Z,8.85
2018-09-23T14:34:19.383Z,6.00
2018-09-23T14:37:19.531Z,8.83
2018-09-23T14:40:16.861Z,9.20
2018-09-23T14:46:30.419Z,10.63
2018-09-23T14:49:37.613Z,11.25
2018-09-23T14:52:47.111Z,6.35
2018-09-23T14:55:55.645Z,11.45
2018-09-23T15:01:46.761Z,6.40
2018-09-23T15:04:43.546Z,8.50
2018-09-23T15:07:40.702Z,7.62
2018-09-23T15:10:34.987Z,7.03
2018-09-23T15:16:22.222Z,7.78
2018-09-23T15:19:25.094Z,8.05
2018-09-23T15:22:17.342Z,6.20
2018-09-23T15:25:09.466Z,9.75
2018-09-23T15:28:09.732Z,8.78
2018-09-23T15:31:13.721Z,7.25
2018-09-23T15:34:12.921Z,8.03
2018-09-23T15:37:04.481Z,7.83
2018-09-23T15:40:14.292Z,6.42
2018-09-23T15:43:08.578Z,9.20
2018-09-23T15:46:11.323Z,9.40
2018-09-23T15:49:14.665Z,4.00
2018-09-23T15:58:10.544Z,8.88
2018-09-23T16:01:11.401Z,8.18
2018-09-23T16:07:14.576Z,8.33
2018-09-23T16:10:02.589Z,5.25
2018-09-23T16:19:17.953Z,9.38
2018-09-23T16:28:20.923Z,6.40
2018-09-23T16:31:56.536Z,9.00
2018-09-23T16:35:01.101Z,9.93
2018-09-23T16:37:52.763Z,13.10
2018-09-23T16:40:53.318Z,11.95
2018-09-23T16:43:51.403Z,11.15
2018-09-23T16:56:07.533Z,9.83
2018-09-23T17:02:11.161Z,5.97
2018-09-23T17:08:19.604Z,7.92
2018-09-23T17:11:22.731Z,9.35
2018-09-23T17:14:22.951Z,9.25
2018-09-23T17:29:43.578Z,14.93
2018-09-23T17:35:49.641Z,11.00
2018-09-23T17:38:56.195Z,12.87
2018-09-23T17:41:57.460Z,11.60
2018-09-23T17:44:57.914Z,12.65
2018-09-23T17:47:58.452Z,10.07
2018-09-23T17:51:47.516Z,8.33
2018-09-23T17:58:08.284Z,10.27
2018-09-23T18:07:09.945Z,10.78
2018-09-23T18:13:06.474Z,10.47
2018-09-23T18:19:01.747Z,10.50
2018-09-23T18:21:59.438Z,11.43
2018-09-23T18:25:04.135Z,16.13
2018-09-23T18:28:07.915Z,9.77
2018-09-23T18:31:08.916Z,15.80
2018-09-23T18:41:02.388Z,10.43
2018-09-23T18:47:14.816Z,9.83
2018-09-23T18:53:13.565Z,10.70
2018-09-23T19:06:30.333Z,11.90
2018-09-23T19:10:15.636Z,12.43
2018-09-23T19:13:22.214Z,6.77
2018-09-23T19:26:04.042Z,11.80
2018-09-23T19:32:10.964Z,9.20
2018-09-23T19:35:26.611Z,14.03
2018-09-23T19:38:33.978Z,10.07
2018-09-23T19:41:57.724Z,13.17
2018-09-23T19:48:49.471Z,11.10
2018-09-23T19:52:12.694Z,15.83
2018-09-23T20:08:37.056Z,7.70
2018-09-23T20:11:06.102Z,9.10
2018-09-23T20:13:46.086Z,15.87
2018-09-23T20:16:14.768Z,10.20
2018-09-23T20:18:43.369Z,15.50
2018-09-23T20:21:12.169Z,15.17
2018-09-23T20:23:40.788Z,12.03
2018-09-23T20:26:15.209Z,14.07
2018-09-23T20:28:49.579Z,13.90
2018-09-23T20:31:18.277Z,13.03
2018-09-23T20:33:46.889Z,13.83
2018-09-23T20:36:21.128Z,14.07
2018-09-23T20:38:49.861Z,13.73
2018-09-23T20:41:18.721Z,15.10
2018-09-23T20:43:47.627Z,14.67
2018-09-23T20:46:16.430Z,14.17
2018-09-23T20:48:45.117Z,15.20
2018-09-23T20:51:13.733Z,15.13
2018-09-23T20:53:42.309Z,14.37
2018-09-23T20:56:10.876Z,13.73
2018-09-23T20:58:40.062Z,9.60
2018-09-23T21:01:08.884Z,14.73
2018-09-23T21:03:37.739Z,11.90
2018-09-23T21:06:06.609Z,11.77
2018-09-23T21:08:36.081Z,11.07
2018-09-23T21:11:04.889Z,15.83
2018-09-23T21:13:33.579Z,13.43
2018-09-23T21:16:02.234Z,15.43
2018-09-23T21:18:30.954Z,12.87
2018-09-23T21:20:59.684Z,15.30
2018-09-23T21:23:28.269Z,17.67
2018-09-23T21:25:57.256Z,13.80
2018-09-23T21:28:25.969Z,16.03
2018-09-23T21:31:00.324Z,17.00
2018-09-23T21:33:29.052Z,13.37
2018-09-23T21:35:57.833Z,15.87
2018-09-23T21:38:32.036Z,17.87
2018-09-23T21:41:00.819Z,14.17
2018-09-23T21:43:29.596Z,17.20
2018-09-23T21:45:58.406Z,16.20
2018-09-23T21:48:27.161Z,12.73
2018-09-23T21:50:55.884Z,14.70
2018-09-23T21:53:25.452Z,17.13
2018-09-23T21:55:54.274Z,15.23
2018-09-23T21:58:23.029Z,14.27
2018-09-23T22:00:51.939Z,13.17
2018-09-23T22:03:20.825Z,14.23
2018-09-23T22:05:49.666Z,18.60
2018-09-23T22:08:19.604Z,14.60
2018-09-23T22:10:48.339Z,12.20
2018-09-23T22:13:17.113Z,13.40
2018-09-23T22:15:45.955Z,13.90
2018-09-23T22:18:14.864Z,14.00
2018-09-23T22:20:43.667Z,15.07
2018-09-23T22:23:12.430Z,13.97
2018-09-23T22:25:41.134Z,14.00
2018-09-23T22:28:09.941Z,15.30
2018-09-23T22:30:38.724Z,19.43
2018-09-23T22:33:07.501Z,15.03
2018-09-23T22:35:36.226Z,20.67
2018-09-23T22:38:04.981Z,19.97
2018-09-23T22:40:33.736Z,18.60
2018-09-23T22:43:02.434Z,19.97
2018-09-23T22:45:31.265Z,20.37
2018-09-23T22:47:59.877Z,22.10
2018-09-23T22:50:28.488Z,24.00
2018-09-23T22:52:57.189Z,21.53
2018-09-23T22:55:26.769Z,26.97
2018-09-23T22:57:55.394Z,22.97
2018-09-23T23:00:24.229Z,25.53
2018-09-23T23:02:53.001Z,20.03
2018-09-23T23:05:21.719Z,17.00
2018-09-23T23:07:50.469Z,24.57
2018-09-23T23:10:19.161Z,17.97
2018-09-23T23:12:47.776Z,25.77
2018-09-23T23:15:16.484Z,24.70
2018-09-23T23:17:45.100Z,26.77
2018-09-23T23:20:13.841Z,21.40
2018-09-23T23:22:42.660Z,22.60
2018-09-23T23:25:11.716Z,28.50
2018-09-23T23:27:40.526Z,26.53
2018-09-23T23:30:09.321Z,22.10
2018-09-23T23:32:38.081Z,24.63
2018-09-23T23:35:07.136Z,24.83
2018-09-23T23:37:35.923Z,20.30
2018-09-23T23:40:05.778Z,21.23
2018-09-23T23:42:34.563Z,22.27
2018-09-23T23:45:03.401Z,23.23
2018-09-23T23:47:32.139Z,23.93
2018-09-23T23:50:00.835Z,23.67
2018-09-23T23:52:29.494Z,21.30
2018-09-23T23:54:58.023Z,24.83
2018-09-23T23:57:26.621Z,19.73
2018-09-23T23:59:55.666Z,20.67
